createdAt,value
2018-10-06T00:00:32.180Z,98974.05
2018-10-06T00:03:00.649Z,98976.19
2018-10-06T00:05:29.093Z,98976.41
2018-10-06T00:07:57.579Z,98975.16
2018-10-06T00:10:26.186Z,98974.80
2018-10-06T00:12:54.684Z,98968.08
2018-10-06T00:15:23.094Z,98966.94
2018-10-06T00:17:52.388Z,98963.89
2018-10-06T00:20:21.459Z,98961.17
2018-10-06T00:22:49.969Z,98965.74
2018-10-06T00:25:18.396Z,98962.17
2018-10-06T00:27:46.908Z,98960.97
2018-10-06T00:30:15.448Z,98964.13
2018-10-06T00:32:43.922Z,98962.50
2018-10-06T00:35:13.292Z,98949.48
2018-10-06T00:37:41.750Z,98952.25
2018-10-06T00:40:10.343Z,98959.97
2018-10-06T00:42:38.804Z,98951.77
2018-10-06T00:45:07.295Z,98946.57
2018-10-06T00:47:35.765Z,98957.78
2018-10-06T00:50:04.269Z,98947.99
2018-10-06T00:52:33.159Z,98948.69
2018-10-06T00:55:01.624Z,98951.09
2018-10-06T00:57:30.056Z,98954.44
2018-10-06T00:59:58.492Z,98952.98
2018-10-06T01:02:26.933Z,98946.47
2018-10-06T01:04:55.440Z,98953.97
2018-10-06T01:07:24.089Z,98941.72
2018-10-06T01:09:54.147Z,98940.47
2018-10-06T01:12:22.819Z,98937.75
2018-10-06T01:14:51.300Z,98935.15
2018-10-06T01:17:19.778Z,98929.45
2018-10-06T01:19:48.694Z,98928.25
2018-10-06T01:22:17.197Z,98920.44
2018-10-06T01:24:45.716Z,98921.06
2018-10-06T01:27:14.249Z,98920.94
2018-10-06T01:29:42.672Z,98927.34
2018-10-06T01:32:11.184Z,98918.27
2018-10-06T01:34:39.690Z,98924.93
2018-10-06T01:37:08.269Z,98924.23
2018-10-06T01:39:36.691Z,98919.46
2018-10-06T01:42:05.229Z,98913.94
2018-10-06T01:44:34.297Z,98907.57
2018-10-06T01:47:02.736Z,98906.25
2018-10-06T01:49:31.221Z,98902.86
2018-10-06T01:51:59.684Z,98900.03
2018-10-06T01:54:28.197Z,98906.53
2018-10-06T01:56:56.603Z,98901.47
2018-10-06T01:59:25.093Z,98899.91
2018-10-06T02:01:53.551Z,98897.39
2018-10-06T02:04:25.983Z,98897.33
2018-10-06T02:06:55.459Z,98892.49
2018-10-06T02:09:24.767Z,98891.75
2018-10-06T02:11:53.536Z,98883.46
2018-10-06T02:14:22.060Z,98892.09
2018-10-06T02:16:50.534Z,98888.98
2018-10-06T02:19:19.031Z,98881.56
2018-10-06T02:21:47.424Z,98878.17
2018-10-06T02:24:15.963Z,98875.75
2018-10-06T02:26:44.634Z,98877.14
2018-10-06T02:29:13.242Z,98889.20
2018-10-06T02:31:41.675Z,98880.81
2018-10-06T02:34:10.199Z,98870.48
2018-10-06T02:36:38.665Z,98868.00
2018-10-06T02:39:07.568Z,98863.58
2018-10-06T02:41:36.052Z,98866.92
2018-10-06T02:44:04.553Z,98864.91
2018-10-06T02:46:33.032Z,98864.78
2018-10-06T02:49:01.518Z,98863.69
2018-10-06T02:51:30.538Z,98863.98
2018-10-06T02:53:59.175Z,98864.72
2018-10-06T02:56:27.563Z,98849.39
2018-10-06T02:58:56.026Z,98853.34
2018-10-06T03:01:25.123Z,98847.72
2018-10-06T03:03:53.648Z,98846.12
2018-10-06T03:06:22.094Z,98842.47
2018-10-06T03:08:50.552Z,98844.39
2018-10-06T03:11:18.984Z,98841.34
2018-10-06T03:13:47.399Z,98831.92
2018-10-06T03:16:15.827Z,98838.29
2018-10-06T03:18:44.324Z,98838.70
2018-10-06T03:21:13.783Z,98836.16
2018-10-06T03:23:42.235Z,98831.45
2018-10-06T03:26:10.740Z,98828.05
2018-10-06T03:28:39.829Z,98830.53
2018-10-06T03:31:08.321Z,98831.22
2018-10-06T03:33:36.803Z,98822.53
2018-10-06T03:36:06.000Z,98824.26
2018-10-06T03:38:34.458Z,98827.39
2018-10-06T03:41:02.876Z,98819.31
2018-10-06T03:43:31.280Z,98823.88
2018-10-06T03:45:59.780Z,98823.64
2018-10-06T03:48:28.279Z,98814.90
2018-10-06T03:50:56.723Z,98814.84
2018-10-06T03:53:25.248Z,98814.67
2018-10-06T03:55:53.780Z,98811.69
2018-10-06T03:58:22.295Z,98807.19
2018-10-06T04:00:50.732Z,98806.52
2018-10-06T04:03:19.179Z,98807.77
2018-10-06T04:05:47.664Z,98810.69
2018-10-06T04:08:16.097Z,98803.89
2018-10-06T04:10:44.548Z,98801.16
2018-10-06T04:13:13.004Z,98803.75
2018-10-06T04:15:41.448Z,98802.95
2018-10-06T04:18:09.883Z,98804.34
2018-10-06T04:20:38.334Z,98803.41
2018-10-06T04:23:06.945Z,98796.45
2018-10-06T04:25:35.446Z,98798.30
2018-10-06T04:28:03.867Z,98793.31
2018-10-06T04:30:32.339Z,98787.90
2018-10-06T04:33:00.819Z,98789.84
2018-10-06T04:35:29.308Z,98790.59
2018-10-06T04:37:58.880Z,98785.03
2018-10-06T04:40:27.298Z,98783.81
2018-10-06T04:42:55.732Z,98787.72
2018-10-06T04:45:24.222Z,98792.37
2018-10-06T04:47:52.807Z,98792.84
2018-10-06T04:50:21.260Z,98790.65
2018-10-06T04:52:49.731Z,98789.78
2018-10-06T04:55:18.219Z,98792.32
2018-10-06T04:57:46.775Z,98787.53
2018-10-06T05:00:15.268Z,98786.41
2018-10-06T05:02:43.707Z,98779.06
2018-10-06T05:05:12.271Z,98779.14
2018-10-06T05:07:40.822Z,98784.28
2018-10-06T05:10:09.301Z,98786.47
2018-10-06T05:12:37.800Z,98787.90
2018-10-06T05:15:06.326Z,98792.14
2018-10-06T05:17:34.863Z,98787.09
2018-10-06T05:20:03.388Z,98787.03
2018-10-06T05:22:31.844Z,98788.41
2018-10-06T05:25:00.332Z,98786.80
2018-10-06T05:27:28.932Z,98791.39
2018-10-06T05:29:57.412Z,98785.53
2018-10-06T05:32:25.881Z,98784.21
2018-10-06T05:34:54.318Z,98788.23
2018-10-06T05:37:22.827Z,98783.94
2018-10-06T05:39:51.320Z,98785.67
2018-10-06T05:42:19.771Z,98780.31
2018-10-06T05:44:48.234Z,98784.52
2018-10-06T05:47:16.697Z,98790.13
2018-10-06T05:49:45.123Z,98786.27
2018-10-06T05:52:13.702Z,98785.42
2018-10-06T05:54:42.200Z,98792.43
2018-10-06T05:57:10.698Z,98790.75
2018-10-06T05:59:39.157Z,98808.74
2018-10-06T06:02:07.804Z,98787.98
2018-10-06T06:04:36.287Z,98788.98
2018-10-06T06:07:04.711Z,98791.48
2018-10-06T06:09:33.212Z,98789.23
2018-10-06T06:12:01.708Z,98796.92
2018-10-06T06:14:30.223Z,98795.74
2018-10-06T06:16:58.758Z,98799.41
2018-10-06T06:19:27.240Z,98799.84
2018-10-06T06:21:55.757Z,98804.65
2018-10-06T06:24:24.240Z,98804.45
2018-10-06T06:26:52.752Z,98800.64
2018-10-06T06:29:21.210Z,98804.49
2018-10-06T06:31:49.683Z,98809.84
2018-10-06T06:34:18.182Z,98807.53
2018-10-06T06:36:46.720Z,98806.41
2018-10-06T06:39:15.197Z,98807.78
2018-10-06T06:41:43.683Z,98799.94
2018-10-06T06:44:12.212Z,98806.83
2018-10-06T06:46:40.700Z,98809.95
2018-10-06T06:49:09.179Z,98812.42
2018-10-06T06:51:37.887Z,98812.02
2018-10-06T06:54:07.738Z,98808.66
2018-10-06T06:56:36.263Z,98807.27
2018-10-06T06:59:04.693Z,98807.28
2018-10-06T07:01:33.207Z,98793.48
2018-10-06T07:04:01.680Z,98797.57
2018-10-06T07:06:30.787Z,98792.31
2018-10-06T07:08:59.335Z,98788.42
2018-10-06T07:11:27.819Z,98792.09
2018-10-06T07:13:56.336Z,98796.31
2018-10-06T07:16:24.823Z,98795.87
2018-10-06T07:18:54.097Z,98798.83
2018-10-06T07:21:22.542Z,98796.09
2018-10-06T07:23:51.631Z,98787.02
2018-10-06T07:26:20.071Z,98785.71
2018-10-06T07:28:48.618Z,98780.72
2018-10-06T07:31:17.060Z,98779.23
2018-10-06T07:33:46.051Z,98773.97
2018-10-06T07:36:14.524Z,98784.39
2018-10-06T07:38:43.085Z,98786.39
2018-10-06T07:41:11.592Z,98793.56
2018-10-06T07:43:40.649Z,98799.01
2018-10-06T07:46:09.229Z,98798.84
2018-10-06T07:48:37.966Z,98794.97
2018-10-06T07:51:06.725Z,98802.06
2018-10-06T07:53:35.221Z,98634.31
2018-10-06T07:56:03.666Z,98793.69
2018-10-06T07:58:32.239Z,98783.68
2018-10-06T08:01:00.700Z,98774.66
2018-10-06T08:03:29.141Z,98785.58
2018-10-06T08:05:57.688Z,98781.66
2018-10-06T08:08:26.198Z,98787.61
2018-10-06T08:10:54.695Z,98781.03
2018-10-06T08:13:23.190Z,98784.66
2018-10-06T08:15:52.786Z,98785.53
2018-10-06T08:18:21.255Z,98788.77
2018-10-06T08:20:49.863Z,98791.82
2018-10-06T08:23:18.451Z,98786.95
2018-10-06T08:25:47.636Z,98787.80
2018-10-06T08:28:16.120Z,98782.03
2018-10-06T08:30:44.596Z,98780.05
2018-10-06T08:33:13.096Z,98767.31
2018-10-06T08:35:41.597Z,98760.16
2018-10-06T08:38:10.133Z,98755.40
2018-10-06T08:40:38.559Z,98760.48
2018-10-06T08:43:07.103Z,98756.38
2018-10-06T08:45:35.582Z,98747.71
2018-10-06T08:48:04.098Z,98748.63
2018-10-06T08:50:33.184Z,98745.00
2018-10-06T08:53:01.766Z,98734.90
2018-10-06T08:55:30.250Z,98740.09
2018-10-06T08:57:58.739Z,98727.13
2018-10-06T09:00:27.205Z,98728.20
2018-10-06T09:02:55.656Z,98726.84
2018-10-06T09:05:24.204Z,98728.02
2018-10-06T09:07:53.016Z,98727.41
2018-10-06T09:10:21.582Z,98732.68
2018-10-06T09:12:50.016Z,98729.84
2018-10-06T09:15:18.487Z,98737.34
2018-10-06T09:17:46.937Z,98721.48
2018-10-06T09:20:15.356Z,98717.80
2018-10-06T09:22:43.844Z,98712.16
2018-10-06T09:25:13.518Z,98710.35
2018-10-06T09:27:42.130Z,98701.23
2018-10-06T09:30:10.721Z,98691.00
2018-10-06T09:32:39.172Z,98694.97
2018-10-06T09:35:07.781Z,98694.09
2018-10-06T09:37:36.406Z,98697.92
2018-10-06T09:40:05.031Z,98687.07
2018-10-06T09:42:33.740Z,98675.37
2018-10-06T09:45:02.178Z,98680.63
2018-10-06T09:47:30.666Z,98678.95
2018-10-06T09:49:59.330Z,98676.64
2018-10-06T09:52:27.955Z,98678.52
2018-10-06T09:54:56.600Z,98673.36
2018-10-06T09:57:25.445Z,98677.69
2018-10-06T09:59:54.037Z,98676.56
2018-10-06T10:02:27.880Z,98683.98
2018-10-06T10:05:59.731Z,98681.42
2018-10-06T10:08:28.204Z,98682.63
2018-10-06T10:10:56.676Z,98680.65
2018-10-06T10:13:25.961Z,98678.89
2018-10-06T10:15:54.524Z,98676.47
2018-10-06T10:18:23.169Z,98671.04
2018-10-06T10:20:51.504Z,98666.13
2018-10-06T10:23:20.088Z,98665.62
2018-10-06T10:25:49.235Z,98654.81
2018-10-06T10:28:17.750Z,98649.08
2018-10-06T10:30:46.215Z,98646.84
2018-10-06T10:33:14.682Z,98642.34
2018-10-06T10:35:43.241Z,98650.03
2018-10-06T10:38:11.723Z,98650.66
2018-10-06T10:40:40.200Z,98648.30
2018-10-06T10:43:08.701Z,98650.60
2018-10-06T10:45:37.297Z,98649.85
2018-10-06T10:48:05.921Z,98639.05
2018-10-06T10:50:34.516Z,98644.11
2018-10-06T10:53:03.019Z,98633.50
2018-10-06T10:55:31.610Z,98630.59
2018-10-06T10:58:00.163Z,98634.05
2018-10-06T11:00:28.756Z,98626.16
2018-10-06T11:02:57.191Z,98625.80
2018-10-06T11:05:26.192Z,98620.70
2018-10-06T11:07:54.798Z,98612.80
2018-10-06T11:10:23.329Z,98608.31
2018-10-06T11:12:52.080Z,98609.07
2018-10-06T11:15:20.644Z,98610.60
2018-10-06T11:17:49.760Z,98604.44
2018-10-06T11:20:18.325Z,98603.26
2018-10-06T11:22:46.788Z,98603.25
2018-10-06T11:25:15.304Z,98597.77
2018-10-06T11:27:43.786Z,98597.34
2018-10-06T11:30:12.276Z,98596.41
2018-10-06T11:32:40.818Z,98598.22
2018-10-06T11:35:09.450Z,98588.92
2018-10-06T11:37:38.156Z,98587.70
2018-10-06T11:40:06.660Z,98587.81
2018-10-06T11:42:35.189Z,98578.50
2018-10-06T11:45:03.684Z,98577.71
2018-10-06T11:47:32.232Z,98577.88
2018-10-06T11:50:00.771Z,98575.41
2018-10-06T11:52:29.244Z,98566.52
2018-10-06T11:54:59.318Z,98560.53
2018-10-06T11:57:27.860Z,98554.88
2018-10-06T11:59:56.376Z,98554.72
2018-10-06T12:02:24.893Z,98551.13
2018-10-06T12:04:53.501Z,98547.81
2018-10-06T12:07:22.002Z,98546.28
2018-10-06T12:09:51.164Z,98542.80
2018-10-06T12:12:19.862Z,98540.20
2018-10-06T12:14:48.432Z,98534.78
2018-10-06T12:17:16.960Z,98536.36
2018-10-06T12:19:45.424Z,98536.89
2018-10-06T12:22:14.023Z,98521.69
2018-10-06T12:24:42.523Z,98516.23
2018-10-06T12:27:11.418Z,98517.12
2018-10-06T12:29:40.010Z,98515.77
2018-10-06T12:32:08.558Z,98509.52
2018-10-06T12:34:37.131Z,98507.85
2018-10-06T12:37:05.596Z,98512.73
2018-10-06T12:39:34.120Z,98506.20
2018-10-06T12:42:02.771Z,98508.69
2018-10-06T12:44:31.465Z,98495.34
2018-10-06T12:47:00.949Z,98498.70
2018-10-06T12:49:29.512Z,98491.80
2018-10-06T12:51:58.049Z,98490.60
2018-10-06T12:54:26.658Z,98488.78
2018-10-06T12:56:55.183Z,98495.25
2018-10-06T12:59:23.702Z,98483.28
2018-10-06T13:01:52.232Z,98478.87
2018-10-06T13:04:22.938Z,98483.28
2018-10-06T13:06:51.383Z,98481.67
2018-10-06T13:09:19.939Z,98480.91
2018-10-06T13:11:48.443Z,98474.33
2018-10-06T13:14:16.880Z,98468.72
2018-10-06T13:16:45.356Z,98460.45
2018-10-06T13:19:13.917Z,98463.56
2018-10-06T13:21:42.429Z,98468.92
2018-10-06T13:24:10.876Z,98461.36
2018-10-06T13:26:39.334Z,98461.20
2018-10-06T13:29:07.880Z,98456.30
2018-10-06T13:31:36.424Z,98460.77
2018-10-06T13:34:05.611Z,98432.68
2018-10-06T13:36:34.077Z,98459.20
2018-10-06T13:39:02.590Z,98459.41
2018-10-06T13:41:31.034Z,98432.22
2018-10-06T13:44:00.428Z,98461.87
2018-10-06T13:46:29.561Z,98456.48
2018-10-06T13:48:58.160Z,98454.99
2018-10-06T13:51:26.711Z,98456.20
2018-10-06T13:53:55.944Z,98450.72
2018-10-06T13:56:24.404Z,98449.03
2018-10-06T13:58:52.940Z,98444.47
2018-10-06T14:01:21.389Z,98446.19
2018-10-06T14:03:49.912Z,98441.77
2018-10-06T14:06:18.416Z,98444.61
2018-10-06T14:08:48.000Z,98438.54
2018-10-06T14:11:16.423Z,98437.92
2018-10-06T14:13:44.908Z,98432.52
2018-10-06T14:16:14.346Z,98431.19
2018-10-06T14:18:42.856Z,98420.66
2018-10-06T14:21:11.314Z,98418.28
2018-10-06T14:23:39.776Z,98415.92
2018-10-06T14:26:08.327Z,98416.91
2018-10-06T14:28:37.193Z,98412.70
2018-10-06T14:31:05.700Z,98414.27
2018-10-06T14:33:34.660Z,98409.92
2018-10-06T14:36:03.151Z,98414.22
2018-10-06T14:38:32.611Z,98409.84
2018-10-06T14:41:02.048Z,98403.31
2018-10-06T14:43:31.353Z,98402.88
2018-10-06T14:45:59.832Z,98403.23
2018-10-06T14:48:28.353Z,98398.53
2018-10-06T14:50:57.417Z,98398.05
2018-10-06T14:53:26.034Z,98393.95
2018-10-06T14:55:54.527Z,98400.09
2018-10-06T14:58:23.772Z,98393.97
2018-10-06T15:00:52.295Z,98396.31
2018-10-06T15:03:21.495Z,98396.10
2018-10-06T15:05:50.884Z,98387.72
2018-10-06T15:08:19.381Z,98383.24
2018-10-06T15:10:47.845Z,98384.57
2018-10-06T15:13:16.299Z,98380.73
2018-10-06T15:15:44.848Z,98376.43
2018-10-06T15:18:13.403Z,98371.36
2018-10-06T15:20:41.859Z,98373.62
2018-10-06T15:23:11.245Z,98365.47
2018-10-06T15:25:39.757Z,98367.77
2018-10-06T15:28:08.241Z,98361.34
2018-10-06T15:30:36.769Z,98365.53
2018-10-06T15:33:05.673Z,98359.03
2018-10-06T15:35:34.243Z,98357.37
2018-10-06T15:38:02.790Z,98358.73
2018-10-06T15:40:31.328Z,98357.77
2018-10-06T15:43:00.320Z,98355.86
2018-10-06T15:45:28.841Z,98357.05
2018-10-06T15:47:57.287Z,98357.11
2018-10-06T15:50:26.529Z,98358.77
2018-10-06T15:52:55.093Z,98355.23
2018-10-06T15:55:23.851Z,98352.20
2018-10-06T15:57:53.134Z,98356.05
2018-10-06T16:00:21.583Z,98350.73
2018-10-06T16:02:50.104Z,98355.53
2018-10-06T16:05:19.007Z,98354.08
2018-10-06T16:07:47.436Z,98344.97
2018-10-06T16:10:15.937Z,98349.89
2018-10-06T16:12:44.454Z,98349.14
2018-10-06T16:15:12.958Z,98346.22
2018-10-06T16:17:41.411Z,98349.86
2018-10-06T16:20:09.930Z,98355.31
2018-10-06T16:22:38.418Z,98353.64
2018-10-06T16:25:06.924Z,98350.23
2018-10-06T16:27:35.424Z,98352.73
2018-10-06T16:30:03.846Z,98346.14
2018-10-06T16:32:33.964Z,98345.20
2018-10-06T16:35:03.080Z,98340.35
2018-10-06T16:37:32.118Z,98344.48
2018-10-06T16:40:00.720Z,98341.79
2018-10-06T16:42:29.235Z,98340.86
2018-10-06T16:44:57.781Z,98341.77
2018-10-06T16:47:26.273Z,98342.41
2018-10-06T16:49:54.971Z,98343.59
2018-10-06T16:52:24.313Z,98347.00
2018-10-06T16:54:53.490Z,98350.66
2018-10-06T16:57:22.097Z,98351.49
2018-10-06T16:59:50.781Z,98354.31
2018-10-06T17:02:19.561Z,98363.20
2018-10-06T17:04:48.039Z,98358.63
2018-10-06T17:07:16.571Z,98359.48
2018-10-06T17:09:45.040Z,98365.70
2018-10-06T17:12:14.825Z,98364.30
2018-10-06T17:14:43.961Z,98363.92
2018-10-06T17:17:12.550Z,98367.66
2018-10-06T17:19:41.088Z,98367.69
2018-10-06T17:22:10.420Z,98369.53
2018-10-06T17:24:38.919Z,98370.47
2018-10-06T17:27:07.534Z,98367.14
2018-10-06T17:29:36.281Z,98370.67
2018-10-06T17:32:05.700Z,98363.50
2018-10-06T17:34:34.862Z,98364.80
2018-10-06T17:37:04.344Z,98362.49
2018-10-06T17:39:32.913Z,98366.38
2018-10-06T17:42:01.444Z,98363.12
2018-10-06T17:44:30.619Z,98370.84
2018-10-06T17:46:59.084Z,98368.52
2018-10-06T17:49:27.553Z,98371.09
2018-10-06T17:51:56.048Z,98372.97
2018-10-06T17:54:24.669Z,98371.44
2018-10-06T17:56:53.641Z,98366.56
2018-10-06T17:59:22.403Z,98369.45
2018-10-06T18:01:51.063Z,98376.67
2018-10-06T18:04:20.064Z,98378.22
2018-10-06T18:06:50.401Z,98384.20
2018-10-06T18:09:19.064Z,98383.36
2018-10-06T18:11:47.957Z,98381.92
2018-10-06T18:14:16.503Z,98380.20
2018-10-06T18:16:45.012Z,98382.23
2018-10-06T18:19:14.164Z,98386.25
2018-10-06T18:21:42.780Z,98362.53
2018-10-06T18:24:13.203Z,98388.95
2018-10-06T18:26:41.784Z,98387.94
2018-10-06T18:29:10.414Z,98390.38
2018-10-06T18:31:39.021Z,98385.64
2018-10-06T18:34:07.647Z,98397.10
2018-10-06T18:36:36.313Z,98389.67
2018-10-06T18:39:06.598Z,98389.34
2018-10-06T18:41:35.089Z,98395.81
2018-10-06T18:44:03.541Z,98396.56
2018-10-06T18:46:32.309Z,98397.83
2018-10-06T18:49:01.050Z,98394.70
2018-10-06T18:51:30.059Z,98397.31
2018-10-06T18:53:58.716Z,98401.17
2018-10-06T18:56:27.499Z,98404.39
2018-10-06T18:58:56.052Z,98406.27
2018-10-06T19:01:24.671Z,98402.66
2018-10-06T19:03:53.788Z,98408.70
2018-10-06T19:06:22.329Z,98403.70
2018-10-06T19:08:51.827Z,98402.08
2018-10-06T19:11:20.554Z,98406.95
2018-10-06T19:13:49.073Z,98407.66
2018-10-06T19:16:17.651Z,98407.71
2018-10-06T19:18:46.904Z,98412.59
2018-10-06T19:21:16.008Z,98419.31
2018-10-06T19:23:45.545Z,98422.14
2018-10-06T19:26:14.046Z,98419.48
2018-10-06T19:28:42.582Z,98423.85
2018-10-06T19:31:11.130Z,98423.02
2018-10-06T19:33:39.801Z,98423.18
2018-10-06T19:36:08.413Z,98417.52
2018-10-06T19:38:37.113Z,98418.69
2018-10-06T19:41:05.633Z,98425.39
2018-10-06T19:43:34.737Z,98420.91
2018-10-06T19:46:03.406Z,98422.44
2018-10-06T19:48:31.997Z,98421.59
2018-10-06T19:51:00.512Z,98419.12
2018-10-06T19:53:29.540Z,98424.82
2018-10-06T19:55:58.083Z,98423.48
2018-10-06T19:58:27.113Z,98420.98
2018-10-06T20:00:55.923Z,98426.80
2018-10-06T20:03:25.167Z,98424.33
2018-10-06T20:05:54.403Z,98429.50
2018-10-06T20:08:23.659Z,98432.36
2018-10-06T20:10:52.911Z,98439.69
2018-10-06T20:13:21.866Z,98433.88
2018-10-06T20:15:50.939Z,98431.03
2018-10-06T20:18:19.428Z,98442.52
2018-10-06T20:20:48.560Z,98444.53
2018-10-06T20:23:17.096Z,98435.70
2018-10-06T20:25:45.740Z,98439.20
2018-10-06T20:28:14.303Z,98438.70
2018-10-06T20:30:42.852Z,98442.35
2018-10-06T20:33:11.404Z,98446.34
2018-10-06T20:35:39.903Z,98451.50
2018-10-06T20:38:08.398Z,98455.50
2018-10-06T20:40:37.673Z,98449.67
2018-10-06T20:43:07.042Z,98450.67
2018-10-06T20:45:35.932Z,98443.52
2018-10-06T20:48:05.263Z,98445.03
2018-10-06T20:50:34.177Z,98443.69
2018-10-06T20:53:02.716Z,98440.35
2018-10-06T20:55:32.915Z,98445.50
2018-10-06T20:58:02.196Z,98440.01
2018-10-06T21:00:31.212Z,98439.01
2018-10-06T21:02:59.836Z,98433.95
2018-10-06T21:05:28.681Z,98438.27
2018-10-06T21:07:57.132Z,98436.27
2018-10-06T21:10:25.578Z,98438.61
2018-10-06T21:12:54.103Z,98433.77
2018-10-06T21:15:23.358Z,98430.94
2018-10-06T21:17:51.943Z,98429.61
2018-10-06T21:20:20.819Z,98428.25
2018-10-06T21:22:49.439Z,98429.27
2018-10-06T21:25:17.907Z,98428.92
2018-10-06T21:27:47.166Z,98428.56
2018-10-06T21:30:15.635Z,98433.20
2018-10-06T21:32:44.150Z,98430.66
2018-10-06T21:35:12.633Z,98442.11
2018-10-06T21:37:41.161Z,98441.06
2018-10-06T21:40:09.655Z,98440.97
2018-10-06T21:42:38.263Z,98435.83
2018-10-06T21:45:07.111Z,98431.50
2018-10-06T21:47:35.718Z,98435.83
2018-10-06T21:50:04.986Z,98438.94
2018-10-06T21:52:34.204Z,98427.16
2018-10-06T21:55:02.824Z,98436.80
2018-10-06T21:57:31.376Z,98438.76
2018-10-06T21:59:59.910Z,98442.41
2018-10-06T22:02:28.426Z,98434.42
2018-10-06T22:04:58.337Z,98428.56
2018-10-06T22:07:26.879Z,98429.84
2018-10-06T22:09:55.795Z,98427.78
2018-10-06T22:12:24.436Z,98427.56
2018-10-06T22:14:53.093Z,98430.22
2018-10-06T22:17:21.591Z,98421.89
2018-10-06T22:19:50.130Z,98432.70
2018-10-06T22:22:18.682Z,98430.37
2018-10-06T22:24:47.226Z,98429.08
2018-10-06T22:27:15.836Z,98432.22
2018-10-06T22:29:44.259Z,98434.88
2018-10-06T22:32:12.714Z,98435.84
2018-10-06T22:34:41.207Z,98435.61
2018-10-06T22:37:09.652Z,98441.92
2018-10-06T22:39:38.301Z,98440.59
2018-10-06T22:42:06.773Z,98440.27
2018-10-06T22:44:35.230Z,98444.91
2018-10-06T22:47:03.698Z,98439.59
2018-10-06T22:49:32.215Z,98444.69
2018-10-06T22:52:00.697Z,98440.74
2018-10-06T22:54:29.112Z,98443.06
2018-10-06T22:56:57.604Z,98439.34
2018-10-06T22:59:26.097Z,98435.97
2018-10-06T23:01:55.648Z,98441.51
2018-10-06T23:04:24.143Z,98436.67
2018-10-06T23:06:52.708Z,98442.36
2018-10-06T23:09:21.141Z,98435.27
2018-10-06T23:11:49.635Z,98438.64
2018-10-06T23:14:18.057Z,98434.02
2018-10-06T23:16:46.577Z,98438.36
2018-10-06T23:19:15.047Z,98442.34
2018-10-06T23:21:43.526Z,98438.70
2018-10-06T23:24:11.931Z,98435.34
2018-10-06T23:26:40.419Z,98439.51
2018-10-06T23:29:08.844Z,98445.70
2018-10-06T23:31:37.305Z,98435.85
2018-10-06T23:34:05.750Z,98458.45
2018-10-06T23:36:34.324Z,98461.70
2018-10-06T23:39:02.820Z,98459.61
2018-10-06T23:41:31.301Z,98462.30
2018-10-06T23:43:59.738Z,98465.66
2018-10-06T23:46:28.160Z,98469.36
2018-10-06T23:48:56.593Z,98461.06
2018-10-06T23:51:25.085Z,98460.55
2018-10-06T23:53:53.576Z,98460.22
2018-10-06T23:56:22.056Z,98468.30
2018-10-06T23:58:50.831Z,98473.61
